Time;durP1;ratioP1;P1;durP2;ratioP2;P2;SDS_P1;SDS_P2;PMS_P1;PMS_P2;Temp;Humidity;BMP_temperature;BMP_pressure;BME280_temperature;BME280_humidity;BME280_pressure;Samples;Min_cycle;Max_cycle;Signal;HPM_P1;HPM_P2
2021/04/03 00:00:36;;;;;;;0.70;0.60;;;6.40;99.90;;;7.45;100.00;89373.31;4975535;28;20273;-69
2021/04/03 00:03:06;;;;;;;0.80;0.70;;;6.40;99.90;;;7.47;100.00;85422.09;4977370;28;20192;-69
2021/04/03 00:05:34;;;;;;;0.70;0.60;;;6.40;99.90;;;7.39;100.00;83435.38;4977337;28;20189;-69
2021/04/03 00:08:03;;;;;;;0.70;0.60;;;6.40;99.90;;;7.29;100.00;82105.09;4977223;28;20204;-69
2021/04/03 00:10:34;;;;;;;0.70;0.60;;;6.40;99.90;;;7.40;100.00;83437.59;4991803;28;20198;-69
2021/04/03 00:13:02;;;;;;;0.70;0.60;;;6.40;99.90;;;7.40;100.00;81463.88;4976918;28;20303;-69
2021/04/03 00:15:29;;;;;;;0.80;0.75;;;6.40;99.90;;;7.43;100.00;78180.94;4976421;28;20196;-69
2021/04/03 00:17:57;;;;;;;0.70;0.60;;;6.40;99.90;;;7.29;100.00;76519.06;4969460;28;20571;-68
2021/04/03 00:20:30;;;;;;;0.70;0.60;;;6.40;99.90;;;7.32;100.00;78822.25;4977177;28;20220;-69
2021/04/03 00:22:57;;;;;;;0.70;0.50;;;6.40;99.90;;;7.28;100.00;78159.72;4976942;28;20231;-69
2021/04/03 00:25:25;;;;;;;0.70;0.60;;;6.40;99.90;;;7.31;100.00;77507.56;4975632;28;20184;-71
2021/04/03 00:27:52;;;;;;;0.77;0.70;;;6.40;99.90;;;7.36;100.00;71294.03;4975016;28;20222;-70
2021/04/03 00:30:20;;;;;;;0.70;0.60;;;6.40;99.90;;;7.16;100.00;67119.47;4959479;28;20189;-70
2021/04/03 00:32:50;;;;;;;0.73;0.60;;;6.30;99.90;;;7.03;100.00;59299.03;4975793;28;20224;-70
2021/04/03 00:35:21;;;;;;;0.80;0.70;;;6.30;99.90;;;6.59;100.00;60421.00;4976636;28;20196;-69
2021/04/03 00:37:49;;;;;;;0.70;0.60;;;6.00;99.90;;;6.34;100.00;65002.03;4976505;28;20259;-68
2021/04/03 00:40:20;;;;;;;0.70;0.60;;;5.90;99.90;;;6.43;100.00;62758.91;4976515;28;20185;-71
2021/04/03 00:42:49;;;;;;;0.70;0.60;;;5.90;99.90;;;6.27;100.00;37480.75;4975984;28;20224;-71
2021/04/03 00:45:18;;;;;;;0.70;0.60;;;5.80;99.90;;;6.23;100.00;21490.25;4976207;28;20198;-70
2021/04/03 00:47:46;;;;;;;0.80;0.60;;;5.70;99.90;;;6.19;100.00;12419.59;4974625;28;20206;-69
2021/04/03 00:50:16;;;;;;;2.00;1.90;;;5.70;99.90;;;6.17;100.00;6415.59;4975796;28;20192;-70
2021/04/03 00:52:45;;;;;;;0.80;0.70;;;5.70;99.90;;;6.05;100.00;1418.22;5007614;28;20541;-70
2021/04/03 00:55:15;;;;;;;0.70;0.60;;;5.60;99.90;;;6.00;100.00;-1114.34;4974767;28;20184;-69
2021/04/03 00:57:43;;;;;;;0.70;0.60;;;5.50;99.90;;;5.91;100.00;-1574.88;4974553;28;20763;-69
2021/04/03 01:00:12;;;;;;;0.70;0.60;;;5.50;99.90;;;5.80;100.00;2757.59;4973723;28;20200;-70
2021/04/03 01:02:40;;;;;;;0.80;0.70;;;5.40;99.90;;;5.71;100.00;5731.34;4974636;28;20188;-69
2021/04/03 01:05:12;;;;;;;0.75;0.63;;;5.30;99.90;;;5.72;100.00;11446.00;4974787;28;20188;-69
2021/04/03 01:07:40;;;;;;;0.70;0.50;;;5.30;99.90;;;5.60;100.00;15040.44;4973803;28;20208;-70
2021/04/03 01:10:14;;;;;;;0.77;0.70;;;5.30;99.90;;;5.61;100.00;18803.13;4971020;28;20189;-69
2021/04/03 01:12:57;;;;;;;0.80;0.60;;;5.30;99.90;;;5.72;100.00;17492.09;4973036;28;20216;-69
2021/04/03 01:15:40;;;;;;;0.80;0.70;;;5.40;99.90;;;5.68;100.00;18340.53;4974391;28;20215;-69
2021/04/03 01:18:16;;;;;;;0.80;0.70;;;5.30;99.90;;;5.39;100.00;20960.16;4973455;28;20192;-69
2021/04/03 01:21:01;;;;;;;0.80;0.70;;;5.10;99.90;;;5.40;100.00;28323.75;4974338;28;20194;-70
2021/04/03 01:24:22;;;;;;;0.80;0.70;;;5.10;99.90;;;5.40;100.00;32329.91;4974450;28;20236;-69
2021/04/03 01:27:15;;;;;;;0.70;0.65;;;5.10;99.90;;;5.31;100.00;37674.00;4970128;28;20747;-69
2021/04/03 01:30:15;;;;;;;0.75;0.60;;;5.00;99.90;;;5.29;100.00;43881.66;4973934;28;20224;-69
2021/04/03 01:33:01;;;;;;;0.90;0.90;;;5.00;99.90;;;5.38;100.00;49589.34;4955006;29;20203;-69
2021/04/03 01:35:35;;;;;;;0.80;0.70;;;5.00;99.90;;;5.41;100.00;52665.41;4966266;28;20176;-68
2021/04/03 01:38:09;;;;;;;0.80;0.70;;;5.00;99.90;;;5.41;100.00;56136.53;5006450;28;20530;-69
2021/04/03 01:40:39;;;;;;;0.80;0.77;;;5.00;99.90;;;5.43;100.00;58864.78;4974733;28;20191;-69
2021/04/03 01:43:14;;;;;;;0.80;0.70;;;5.00;99.90;;;5.38;100.00;59627.94;4973882;28;20307;-69
2021/04/03 01:45:44;;;;;;;0.70;0.60;;;5.00;99.90;;;5.38;100.00;62982.75;4975134;28;20177;-70
2021/04/03 01:48:19;;;;;;;0.80;0.70;;;5.00;99.90;;;5.59;100.00;65182.78;4973347;28;20212;-71
2021/04/03 01:50:49;;;;;;;0.70;0.60;;;5.10;99.90;;;5.69;100.00;65436.56;4973610;28;20565;-68
2021/04/03 01:53:21;;;;;;;0.70;0.60;;;5.20;99.90;;;5.86;100.00;63907.06;4958368;28;20203;-69
2021/04/03 01:55:56;;;;;;;0.80;0.70;;;5.30;99.90;;;5.95;100.00;60132.47;4975273;28;20216;-70
2021/04/03 01:58:29;;;;;;;0.70;0.70;;;5.30;99.90;;;5.86;100.00;56052.84;4972143;28;20319;-69
2021/04/03 02:00:59;;;;;;;0.70;0.60;;;5.30;99.90;;;5.89;100.00;53632.81;4973077;28;20286;-69
2021/04/03 02:03:30;;;;;;;0.70;0.60;;;5.30;99.90;;;5.87;100.00;51816.34;4973848;28;20200;-68
2021/04/03 02:05:58;;;;;;;0.73;0.63;;;5.30;99.90;;;5.82;100.00;47072.41;4975067;28;20641;-69
2021/04/03 02:08:52;;;;;;;0.70;0.70;;;5.30;99.90;;;5.85;100.00;43387.28;4961159;28;20212;-71
2021/04/03 02:11:44;;;;;;;0.70;0.60;;;5.40;99.90;;;6.16;100.00;36815.53;4974515;28;20726;-70
2021/04/03 02:14:39;;;;;;;0.70;0.60;;;5.40;99.90;;;6.16;100.00;25853.25;4962293;28;20200;-70
2021/04/03 02:17:12;;;;;;;0.70;0.60;;;5.50;99.90;;;6.03;100.00;18481.38;4973323;28;20283;-70
2021/04/03 02:19:41;;;;;;;0.70;0.60;;;5.50;99.90;;;5.99;100.00;14064.72;4972964;28;21504;-70
2021/04/03 02:22:16;;;;;;;0.70;0.60;;;5.50;99.90;;;5.99;100.00;3275.47;4972516;28;20220;-69
2021/04/03 02:24:47;;;;;;;0.70;0.60;;;5.30;99.90;;;5.96;100.00;-10998.50;4974816;28;20228;-69
2021/04/03 02:27:15;;;;;;;0.70;0.60;;;5.30;99.90;;;5.93;100.00;-17723.16;4973175;28;20248;-71
2021/04/03 02:29:44;;;;;;;0.70;0.60;;;5.20;99.90;;;5.92;100.00;-20843.38;4974265;28;20652;-70
2021/04/03 02:32:14;;;;;;;0.70;0.60;;;5.20;99.90;;;5.89;100.00;-20842.41;4974924;28;20177;-69
2021/04/03 02:34:41;;;;;;;0.73;0.60;;;5.20;99.90;;;5.93;100.00;-20843.53;4974461;28;20667;-69
2021/04/03 02:37:28;;;;;;;0.80;0.70;;;5.20;99.90;;;5.82;100.00;-20840.75;4973017;28;20227;-70
2021/04/03 02:39:55;;;;;;;0.70;0.60;;;5.10;99.90;;;5.86;100.00;-20841.56;4974433;28;20743;-69
2021/04/03 02:42:26;;;;;;;0.80;0.70;;;5.10;99.90;;;5.77;100.00;-20839.22;4970993;28;21058;-69
2021/04/03 02:45:02;;;;;;;0.80;0.70;;;5.10;99.90;;;5.75;100.00;-20838.78;4973988;28;20196;-69
2021/04/03 02:47:41;;;;;;;0.70;0.60;;;5.10;99.90;;;6.00;100.00;-20845.47;4972898;28;20675;-69
2021/04/03 02:50:15;;;;;;;0.70;0.60;;;5.20;99.90;;;5.87;100.00;-20841.84;4974278;28;20168;-69
2021/04/03 02:52:48;;;;;;;0.70;0.70;;;5.20;99.90;;;6.00;100.00;-20845.47;4974777;28;20212;-69
2021/04/03 02:55:19;;;;;;;4.63;1.02;;;5.20;99.90;;;6.03;100.00;-20846.31;4973183;28;20540;-70
2021/04/03 02:57:49;;;;;;;0.80;0.70;;;5.30;99.90;;;5.91;100.00;-20843.09;4974148;28;20223;-69
2021/04/03 03:00:19;;;;;;;0.70;0.60;;;5.30;99.90;;;5.94;100.00;-20705.34;4973180;28;20196;-69
2021/04/03 03:02:51;;;;;;;0.70;0.60;;;5.30;99.90;;;6.05;100.00;-18930.03;4973052;28;20307;-69
2021/04/03 03:05:20;;;;;;;0.70;0.60;;;5.30;99.90;;;5.85;100.00;-14617.44;4974979;28;20231;-69
2021/04/03 03:07:50;;;;;;;0.70;0.60;;;5.30;99.90;;;6.00;100.00;-9123.19;4973069;28;20208;-70
2021/04/03 03:10:21;;;;;;;0.70;0.60;;;5.30;99.90;;;5.92;100.00;-5148.56;4972889;28;20184;-69
2021/04/03 03:12:54;;;;;;;0.70;0.60;;;5.30;99.90;;;5.88;100.00;-1840.03;4974187;28;20232;-69
2021/04/03 03:15:30;;;;;;;0.70;0.60;;;5.30;99.90;;;5.72;100.00;3082.13;4972907;28;20196;-69
2021/04/03 03:17:59;;;;;;;0.80;0.70;;;5.20;99.90;;;5.92;100.00;4597.16;4973571;28;20188;-69
2021/04/03 03:20:28;;;;;;;0.75;0.70;;;5.20;99.90;;;5.89;100.00;2167.66;4973872;28;20177;-69
2021/04/03 03:22:59;;;;;;;0.70;0.60;;;5.20;99.90;;;5.87;100.00;1431.69;4973027;28;20203;-70
2021/04/03 03:25:26;;;;;;;0.70;0.60;;;5.20;99.90;;;5.79;100.00;3077.84;4973557;28;20180;-71
2021/04/03 03:27:57;;;;;;;0.70;0.63;;;5.20;99.90;;;5.85;100.00;956.03;4972792;28;20595;-71
2021/04/03 03:30:27;;;;;;;0.70;0.70;;;5.20;99.90;;;5.82;100.00;-372.44;4974131;28;20198;-69
2021/04/03 03:32:59;;;;;;;0.75;0.70;;;5.20;99.90;;;5.80;100.00;365.28;4968125;28;20219;-69
2021/04/03 03:35:27;;;;;;;0.70;0.60;;;5.20;99.90;;;5.84;100.00;-3542.16;4977114;28;20185;-69
2021/04/03 03:37:59;;;;;;;0.70;0.60;;;5.20;99.90;;;5.86;100.00;-6289.59;4977981;28;20235;-69
2021/04/03 03:40:27;;;;;;;0.70;0.60;;;5.20;99.90;;;5.91;100.00;-6212.38;5009047;28;20196;-69
2021/04/03 03:42:58;;;;;;;0.70;0.60;;;5.20;99.90;;;5.99;100.00;-8624.06;4977244;28;20290;-69
2021/04/03 03:45:31;;;;;;;0.70;0.60;;;5.20;99.90;;;5.84;100.00;-7457.66;4973963;28;20200;-69
2021/04/03 03:48:02;;;;;;;0.80;0.70;;;5.20;99.90;;;5.87;100.00;-6139.84;4975811;28;20299;-69
2021/04/03 03:50:35;;;;;;;0.70;0.60;;;5.20;99.90;;;6.02;100.00;-8479.59;4975874;28;20320;-69
2021/04/03 03:53:05;;;;;;;0.70;0.50;;;5.30;99.90;;;5.96;100.00;-9589.41;4976279;28;20184;-69
2021/04/03 03:55:33;;;;;;;0.80;0.70;;;5.20;99.90;;;5.86;100.00;-9062.13;4975994;28;20683;-69
2021/04/03 03:58:03;;;;;;;0.80;0.60;;;5.20;99.90;;;5.79;100.00;-7584.69;4977388;28;20208;-69
2021/04/03 04:00:33;;;;;;;0.80;0.60;;;5.20;99.90;;;5.90;100.00;-5985.13;4975780;28;20188;-69
2021/04/03 04:03:08;;;;;;;0.70;0.70;;;5.20;99.90;;;6.05;100.00;-7354.03;4977460;28;20223;-69
2021/04/03 04:05:43;;;;;;;0.70;0.60;;;5.20;99.90;;;6.05;100.00;-18114.06;4976289;28;20192;-69
2021/04/03 04:08:13;;;;;;;0.70;0.60;;;5.30;99.90;;;5.86;100.00;-18592.06;4976144;28;20212;-68
2021/04/03 04:10:41;;;;;;;0.70;0.60;;;5.20;99.90;;;5.84;100.00;-17651.31;4974784;28;20238;-70
2021/04/03 04:13:12;;;;;;;0.70;0.60;;;5.20;99.90;;;5.88;100.00;-18848.72;4975736;28;20226;-69
2021/04/03 04:15:40;;;;;;;0.70;0.70;;;5.20;99.90;;;5.91;100.00;-20842.97;4975199;28;20200;-69
2021/04/03 04:18:08;;;;;;;0.70;0.60;;;5.30;99.90;;;5.94;100.00;-20843.81;4977070;28;20259;-70
2021/04/03 04:20:35;;;;;;;0.70;0.60;;;5.30;99.90;;;5.93;100.00;-20843.53;5007632;28;20203;-69
2021/04/03 04:23:09;;;;;;;0.70;0.60;;;5.30;99.90;;;5.90;100.00;-20842.69;4972417;28;20201;-69
2021/04/03 04:25:41;;;;;;;0.70;0.60;;;5.30;99.90;;;5.92;100.00;-20843.25;4988682;28;20189;-69
2021/04/03 04:28:12;;;;;;;1.38;1.10;;;5.30;99.90;;;5.91;100.00;-20842.97;4994637;28;20231;-69
2021/04/03 04:30:40;;;;;;;0.80;0.65;;;5.30;99.90;;;5.91;100.00;-20843.09;4975566;28;20223;-69
2021/04/03 04:33:09;;;;;;;0.70;0.60;;;5.30;99.90;;;5.92;100.00;-20843.25;5006206;28;20199;-69
2021/04/03 04:35:37;;;;;;;0.70;0.50;;;5.30;99.90;;;5.79;100.00;-20839.75;4975120;28;20208;-69
2021/04/03 04:38:10;;;;;;;0.80;0.70;;;5.30;99.90;;;5.92;100.00;-20843.38;4975575;28;20284;-71
2021/04/03 04:40:42;;;;;;;0.70;0.60;;;5.30;99.90;;;5.87;100.00;-20841.84;4975124;28;20227;-69
2021/04/03 04:43:13;;;;;;;0.70;0.60;;;5.30;99.90;;;5.97;100.00;-20844.78;4976208;28;20228;-71
2021/04/03 04:45:43;;;;;;;0.80;0.70;;;5.20;99.90;;;5.88;100.00;-20842.13;4975351;28;20243;-71
2021/04/03 04:48:12;;;;;;;0.70;0.70;;;5.20;99.90;;;5.79;100.00;-20529.84;4975222;28;20319;-69
2021/04/03 04:50:43;;;;;;;0.70;0.60;;;5.20;99.90;;;5.87;100.00;-19467.81;4975023;28;20197;-70
2021/04/03 04:53:12;;;;;;;0.70;0.60;;;5.20;99.90;;;6.19;100.00;-18953.28;4959324;28;20290;-69
2021/04/03 04:55:43;;;;;;;0.80;0.70;;;5.30;99.90;;;5.98;100.00;-20619.31;4975011;28;20648;-71
2021/04/03 04:58:11;;;;;;;0.80;0.70;;;5.30;99.90;;;5.81;100.00;-20172.34;4974703;28;20232;-69
2021/04/03 05:00:38;;;;;;;0.70;0.60;;;5.20;99.90;;;5.84;100.00;-17208.47;4973804;28;20279;-69
2021/04/03 05:03:21;;;;;;;0.70;0.60;;;5.20;99.90;;;5.86;100.00;-16676.47;4975581;28;20192;-69
2021/04/03 05:05:48;;;;;;;0.70;0.70;;;5.30;99.90;;;5.96;100.00;-16723.28;4976653;28;20185;-69
2021/04/03 05:08:15;;;;;;;0.70;0.60;;;5.30;99.90;;;6.03;100.00;-19233.13;4976001;28;20291;-70
2021/04/03 05:10:42;;;;;;;0.80;0.70;;;5.30;99.90;;;6.22;100.00;-20538.84;4976128;28;20282;-70
2021/04/03 05:13:09;;;;;;;0.80;0.70;;;5.40;99.90;;;5.93;100.00;-20843.53;4975749;28;20587;-70
2021/04/03 05:15:36;;;;;;;0.70;0.70;;;5.30;99.90;;;5.91;100.00;-20547.91;4975601;28;20285;-71
2021/04/03 05:18:03;;;;;;;0.70;0.70;;;5.30;99.90;;;6.02;100.00;-20277.28;4974464;28;20212;-70
2021/04/03 05:20:31;;;;;;;0.70;0.60;;;5.40;99.90;;;6.00;100.00;-18958.66;4975318;28;20208;-69
2021/04/03 05:22:59;;;;;;;0.70;0.68;;;5.30;99.90;;;5.85;100.00;-18243.59;4975673;28;20239;-69
2021/04/03 05:25:26;;;;;;;0.73;0.68;;;5.30;99.90;;;5.76;100.00;-11499.69;4975608;28;20220;-69
2021/04/03 05:27:53;;;;;;;0.80;0.70;;;5.20;99.90;;;5.85;100.00;-6222.13;4975496;28;20232;-69
2021/04/03 05:30:21;;;;;;;0.70;0.60;;;5.20;99.90;;;5.86;100.00;-4766.31;4974524;28;20192;-69
2021/04/03 05:32:48;;;;;;;0.70;0.60;;;5.30;99.90;;;5.85;100.00;-4793.75;4975427;28;20276;-69
2021/04/03 05:35:15;;;;;;;0.70;0.60;;;5.30;99.90;;;5.90;100.00;-2394.94;4973285;28;20299;-69
2021/04/03 05:37:43;;;;;;;0.70;0.60;;;5.30;99.90;;;6.05;100.00;-1971.97;4975343;28;20602;-69
2021/04/03 05:40:12;;;;;;;0.75;0.65;;;5.30;99.90;;;6.17;100.00;-4149.41;4975317;28;20180;-69
2021/04/03 05:42:42;;;;;;;0.73;0.70;;;5.40;99.90;;;6.27;100.00;-8436.50;4975308;28;20226;-68
2021/04/03 05:45:16;;;;;;;0.70;0.60;;;5.40;99.90;;;6.09;100.00;-12934.69;4975340;28;20181;-69
2021/04/03 05:47:44;;;;;;;0.80;0.70;;;5.30;99.90;;;6.13;100.00;-14121.56;4972083;28;20212;-69
2021/04/03 05:50:12;;;;;;;0.80;0.70;;;5.30;99.90;;;6.01;100.00;-13578.91;4974643;28;20222;-69
2021/04/03 05:52:41;;;;;;;0.80;0.70;;;5.30;99.90;;;6.01;100.00;-13426.91;4974804;28;20555;-69
2021/04/03 05:55:09;;;;;;;0.70;0.60;;;5.30;99.90;;;5.96;100.00;-10235.38;4974000;28;20188;-69
2021/04/03 05:57:36;;;;;;;0.70;0.60;;;5.20;99.90;;;6.09;100.00;-9298.59;4987917;28;20239;-69
2021/04/03 06:00:06;;;;;;;0.70;0.60;;;5.30;99.90;;;6.14;100.00;-10910.75;4973531;28;20200;-69
2021/04/03 06:02:39;;;;;;;0.70;0.60;;;5.30;99.90;;;6.13;100.00;-12586.28;4970034;28;20270;-69
2021/04/03 06:05:08;;;;;;;0.70;0.60;;;5.40;99.90;;;6.27;100.00;-13655.25;4975304;28;20267;-69
2021/04/03 06:07:35;;;;;;;0.70;0.60;;;5.40;99.90;;;6.14;100.00;-14435.66;4972588;28;20215;-70
2021/04/03 06:10:06;;;;;;;0.70;0.60;;;5.40;99.90;;;6.18;100.00;-12761.44;4973500;28;20207;-69
2021/04/03 06:12:42;;;;;;;0.70;0.60;;;5.40;99.90;;;6.52;100.00;-14190.25;4973650;28;20569;-70
2021/04/03 06:15:15;;;;;;;0.70;0.60;;;5.50;99.90;;;6.53;100.00;-17821.09;4984187;28;20248;-70
2021/04/03 06:17:44;;;;;;;0.70;0.60;;;5.60;99.90;;;6.61;100.00;-18639.81;4972514;28;20235;-69
2021/04/03 06:20:11;;;;;;;0.70;0.60;;;5.60;99.90;;;6.57;100.00;-19425.47;4972743;28;20215;-69
2021/04/03 06:22:48;;;;;;;0.70;0.60;;;5.70;99.90;;;6.56;100.00;-19768.72;4974765;28;20275;-70
2021/04/03 06:25:15;;;;;;;0.70;0.60;;;5.80;99.90;;;6.77;100.00;-17432.91;4974695;28;20187;-69
2021/04/03 06:27:43;;;;;;;0.80;0.60;;;5.80;99.90;;;6.91;100.00;-18833.66;4973294;28;20231;-69
2021/04/03 06:30:32;;;;;;;0.70;0.60;;;5.90;99.90;;;7.15;100.00;-20645.88;4971646;28;20546;-69
2021/04/03 06:33:15;;;;;;;0.70;0.60;;;5.90;99.90;;;7.04;100.00;-20873.81;4971923;28;20176;-69
2021/04/03 06:35:44;;;;;;;0.80;0.60;;;5.90;99.90;;;6.91;100.00;-20360.41;4965248;28;20256;-69
2021/04/03 06:38:22;;;;;;;0.70;0.60;;;6.10;99.90;;;6.72;100.00;-19085.63;4966052;28;20676;-68
2021/04/03 06:40:50;;;;;;;0.70;0.60;;;6.00;99.90;;;7.01;100.00;-18370.25;4973946;28;20268;-71
2021/04/03 06:43:18;;;;;;;0.70;0.60;;;6.10;99.90;;;7.22;100.00;-17926.34;4974541;28;20209;-71
2021/04/03 06:45:46;;;;;;;0.70;0.60;;;6.20;99.90;;;7.18;100.00;-16908.00;4973022;28;20205;-70
2021/04/03 06:48:14;;;;;;;0.70;0.57;;;6.20;99.90;;;7.37;100.00;-17286.09;4973386;28;20255;-69
2021/04/03 06:50:45;;;;;;;0.70;0.60;;;6.30;99.90;;;7.28;100.00;-18914.84;4974767;28;20228;-70
2021/04/03 06:53:14;;;;;;;0.70;0.60;;;6.30;99.90;;;7.54;100.00;-19544.50;4988922;28;20201;-71
2021/04/03 06:55:45;;;;;;;0.70;0.60;;;6.30;99.90;;;7.68;100.00;-20313.56;4973490;28;20200;-71
2021/04/03 06:58:13;;;;;;;0.70;0.60;;;6.30;99.90;;;7.45;100.00;-20713.63;4973366;28;20463;-70
2021/04/03 07:00:42;;;;;;;0.70;0.60;;;6.50;99.90;;;7.54;100.00;-20419.50;4972812;28;20251;-69
2021/04/03 07:03:21;;;;;;;1.20;1.08;;;6.50;99.90;;;7.80;100.00;-19710.63;4974346;28;20788;-69
2021/04/03 07:05:48;;;;;;;0.70;0.60;;;6.70;99.90;;;7.38;100.00;-20714.19;4974418;28;20190;-69
2021/04/03 07:08:17;;;;;;;0.70;0.60;;;6.50;99.90;;;7.28;100.00;-20519.59;4975075;28;20216;-69
2021/04/03 07:10:48;;;;;;;0.70;0.50;;;6.40;99.90;;;7.64;100.00;-18277.53;4976444;28;20443;-69
2021/04/03 07:13:15;;;;;;;0.70;0.60;;;6.50;99.90;;;7.32;100.00;-18137.88;4977769;28;20813;-69
2021/04/03 07:15:46;;;;;;;0.70;0.60;;;6.40;99.90;;;7.09;100.00;-19084.75;4976606;28;20220;-69
2021/04/03 07:18:16;;;;;;;0.70;0.60;;;6.30;99.90;;;7.62;100.00;-17037.06;4978595;28;20466;-69
2021/04/03 07:20:44;;;;;;;0.70;0.60;;;6.80;99.90;;;7.82;100.00;-17852.31;4974080;28;20447;-69
2021/04/03 07:23:15;;;;;;;0.70;0.60;;;7.20;99.90;;;8.27;100.00;-20236.50;4988664;28;20453;-69
2021/04/03 07:25:44;;;;;;;0.70;0.53;;;7.60;99.90;;;9.16;100.00;-20931.41;4996081;28;20423;-72
2021/04/03 07:28:14;;;;;;;0.70;0.60;;;7.80;99.90;;;9.11;100.00;-20930.16;4975357;28;20845;-71
2021/04/03 07:30:44;;;;;;;0.70;0.50;;;7.70;99.90;;;9.16;100.00;-20931.53;4975862;28;20450;-71
2021/04/03 07:33:14;;;;;;;0.70;0.60;;;8.10;99.90;;;9.26;100.00;-20934.19;4977075;28;20498;-69
2021/04/03 07:35:49;;;;;;;0.70;0.60;;;8.40;99.90;;;10.34;100.00;-20963.53;4977933;28;20416;-69
2021/04/03 07:38:21;;;;;;;0.70;0.60;;;8.40;99.90;;;10.14;100.00;-20958.00;4976977;28;20921;-69
2021/04/03 07:40:49;;;;;;;0.70;0.60;;;8.50;99.90;;;10.24;100.00;-20960.75;4975940;28;20445;-69
2021/04/03 07:43:36;;;;;;;0.70;0.60;;;8.50;99.90;;;10.58;100.00;-20970.03;4967961;28;20469;-72
2021/04/03 07:46:08;;;;;;;0.70;0.60;;;8.50;99.80;;;10.14;100.00;-20958.00;5008208;28;20471;-70
2021/04/03 07:48:53;;;;;;;0.80;0.60;;;8.80;98.30;;;10.70;100.00;-20973.09;4977026;28;20459;-69
2021/04/03 07:51:46;;;;;;;0.70;0.60;;;9.10;94.20;;;11.41;100.00;-20992.44;4977164;28;20432;-70
2021/04/03 07:54:29;;;;;;;0.70;0.60;;;9.60;94.00;;;11.85;100.00;-21004.31;4976381;28;20497;-69
2021/04/03 07:57:03;;;;;;;0.70;0.60;;;10.00;88.30;;;11.73;100.00;-21001.00;4976036;28;20510;-69
2021/04/03 07:59:51;;;;;;;0.80;0.70;;;10.30;85.90;;;13.72;100.00;-21054.81;4975723;28;20453;-71
2021/04/03 08:02:23;;;;;;;1.23;1.13;;;10.40;78.40;;;13.59;100.00;-21051.22;4975085;28;20440;-69
2021/04/03 08:04:51;;;;;;;0.70;0.60;;;10.60;81.10;;;14.35;100.00;-21071.88;4977040;28;20431;-69
2021/04/03 08:07:21;;;;;;;0.80;0.80;;;10.60;73.50;;;13.13;100.00;-21038.97;4977524;28;20899;-71
2021/04/03 08:09:49;;;;;;;0.80;0.63;;;11.00;73.20;;;13.03;100.00;-21036.34;4976783;28;20458;-70
2021/04/03 08:12:22;;;;;;;0.70;0.60;;;10.60;71.90;;;13.64;100.00;-21052.75;5007429;28;20565;-69
2021/04/03 08:14:52;;;;;;;0.80;0.70;;;10.60;70.20;;;13.26;100.00;-21042.41;4974925;28;20436;-71
2021/04/03 08:17:22;;;;;;;0.80;0.60;;;10.40;72.80;;;13.40;100.00;-21046.13;4970013;28;20455;-71
2021/04/03 08:19:49;;;;;;;0.70;0.60;;;10.70;71.70;;;14.33;100.00;-21071.34;4974615;28;20446;-70
2021/04/03 08:22:16;;;;;;;0.80;0.70;;;10.80;69.50;;;15.17;100.00;-21094.06;4976979;28;20526;-69
2021/04/03 08:25:01;;;;;;;0.73;0.60;;;11.10;66.20;;;16.11;100.00;-21119.34;4975802;28;20436;-72
2021/04/03 08:27:38;;;;;;;0.80;0.80;;;10.50;65.80;;;14.10;100.00;-21065.00;4976378;28;20881;-72
2021/04/03 08:30:22;;;;;;;0.80;0.60;;;10.10;62.80;;;13.84;100.00;-21058.13;4983292;28;20438;-71
2021/04/03 08:33:12;;;;;;;0.87;0.87;;;10.00;64.80;;;13.92;100.00;-21060.31;4976281;28;20962;-71
2021/04/03 08:35:43;;;;;;;0.70;0.60;;;10.20;66.70;;;14.06;100.00;-21064.03;4976558;28;20431;-71
2021/04/03 08:38:22;;;;;;;0.80;0.70;;;10.70;68.10;;;15.42;100.00;-21100.78;4974040;28;20447;-72
2021/04/03 08:40:52;;;;;;;0.80;0.70;;;11.30;66.30;;;15.61;100.00;-21105.72;4976594;28;20446;-71
2021/04/03 08:43:26;;;;;;;0.80;0.70;;;11.30;58.30;;;15.29;100.00;-21097.06;4973823;28;20828;-71
2021/04/03 08:46:00;;;;;;;0.80;0.77;;;10.10;59.70;;;13.94;100.00;-21060.88;4975940;28;20443;-71
2021/04/03 08:48:33;;;;;;;0.80;0.70;;;9.40;66.70;;;12.66;100.00;-21026.13;4974413;28;20520;-71
2021/04/03 08:51:03;;;;;;;0.80;0.60;;;9.50;72.10;;;13.23;100.00;-21041.56;4975326;28;20549;-71
2021/04/03 08:53:38;;;;;;;0.70;0.60;;;9.70;72.00;;;12.65;100.00;-21025.84;4975828;28;20450;-71
2021/04/03 08:56:07;;;;;;;0.80;0.70;;;9.70;71.90;;;14.21;100.00;-21068.03;4973270;28;20512;-71
2021/04/03 08:58:34;;;;;;;0.70;0.60;;;10.70;69.50;;;14.72;100.00;-21081.81;4976094;28;20457;-71
2021/04/03 09:01:03;;;;;;;0.80;0.70;;;11.60;63.30;;;15.81;100.00;-21111.25;4961356;28;20456;-71
2021/04/03 09:03:34;;;;;;;0.70;0.60;;;11.70;59.90;;;15.32;100.00;-21097.91;4975483;28;20439;-69
2021/04/03 09:06:03;;;;;;;0.80;0.80;;;11.60;59.80;;;16.13;100.00;-21119.75;4976032;28;20438;-71
2021/04/03 09:08:30;;;;;;;0.73;0.60;;;11.60;60.00;;;16.67;100.00;-21134.31;4974841;28;20503;-70
2021/04/03 09:11:00;;;;;;;0.77;0.63;;;11.60;60.70;;;14.68;100.00;-21080.84;4976246;28;20958;-71
2021/04/03 09:13:35;;;;;;;0.80;0.70;;;11.50;61.70;;;14.26;100.00;-21069.41;4975512;28;20529;-70
2021/04/03 09:16:12;;;;;;;0.80;0.70;;;11.50;62.80;;;15.46;100.00;-21101.88;4975803;28;20431;-71
2021/04/03 09:18:41;;;;;;;0.70;0.60;;;11.80;62.20;;;15.35;100.00;-21098.72;4974563;28;20523;-70
2021/04/03 09:21:18;;;;;;;0.70;0.60;;;11.90;60.00;;;14.56;100.00;-21077.53;4975021;28;20935;-71
2021/04/03 09:23:50;;;;;;;0.80;0.73;;;12.60;58.90;;;15.23;100.00;-21095.69;4975620;28;20434;-69
2021/04/03 09:26:31;;;;;;;0.80;0.70;;;13.20;57.00;;;16.65;100.00;-21133.75;5006363;28;20421;-68
2021/04/03 09:29:09;;;;;;;0.80;0.60;;;13.10;53.80;;;17.03;100.00;-21143.91;4968506;28;20550;-71
2021/04/03 09:31:42;;;;;;;0.90;0.60;;;13.60;53.80;;;17.15;100.00;-21147.22;4974087;28;20443;-71
2021/04/03 09:34:17;;;;;;;0.80;0.60;;;13.40;48.60;;;17.41;100.00;-21154.06;4975204;28;20942;-71
2021/04/03 09:36:46;;;;;;;0.80;0.60;;;13.70;46.70;;;17.82;100.00;-21165.19;4974685;28;20407;-69
2021/04/03 09:39:15;;;;;;;0.80;0.70;;;13.00;48.40;;;18.00;100.00;-21170.09;4974377;28;20399;-72
2021/04/03 09:41:48;;;;;;;0.80;0.60;;;13.00;48.70;;;18.52;100.00;-21183.94;4975187;28;20480;-72
2021/04/03 09:44:16;;;;;;;0.70;0.60;;;12.70;49.00;;;18.13;100.00;-21173.53;4975323;28;20425;-69
2021/04/03 09:46:43;;;;;;;0.80;0.70;;;12.80;48.80;;;17.44;100.00;-21154.91;4970314;28;20784;-71
2021/04/03 09:49:11;;;;;;;1.43;0.87;;;12.50;49.20;;;18.02;100.00;-21170.53;4967122;28;20541;-69
2021/04/03 09:51:39;;;;;;;0.70;0.57;;;12.90;50.20;;;17.85;100.00;-21166.00;4974103;28;20454;-70
2021/04/03 09:54:06;;;;;;;0.70;0.70;;;12.90;47.80;;;17.23;100.00;-21149.41;4975321;28;20785;-69
2021/04/03 09:56:33;;;;;;;0.70;0.60;;;12.60;47.40;;;16.24;100.00;-21122.63;4974814;28;20409;-69
2021/04/03 09:59:00;;;;;;;0.93;0.83;;;13.20;49.40;;;17.71;100.00;-21162.16;4974609;28;20402;-69
2021/04/03 10:01:28;;;;;;;0.80;0.70;;;13.60;46.10;;;18.37;100.00;-21179.97;4972533;28;20489;-69
2021/04/03 10:03:56;;;;;;;1.93;1.57;;;13.20;47.10;;;18.88;100.00;-21193.53;4972143;28;20451;-69
2021/04/03 10:06:23;;;;;;;0.73;0.57;;;13.30;46.00;;;18.89;100.00;-21193.81;5006463;28;21074;-69
2021/04/03 10:08:51;;;;;;;0.80;0.67;;;13.80;44.50;;;18.86;100.00;-21192.97;4973602;28;20635;-69
2021/04/03 10:11:18;;;;;;;0.70;0.60;;;14.40;44.60;;;18.80;100.00;-21191.63;4973115;28;20950;-69
2021/04/03 10:13:45;;;;;;;1.33;1.23;;;13.80;42.30;;;16.59;100.00;-21132.25;5006652;28;20446;-71
2021/04/03 10:16:12;;;;;;;1.73;1.63;;;13.20;45.70;;;16.31;100.00;-21124.69;4980924;28;20832;-69
2021/04/03 10:18:39;;;;;;;0.80;0.70;;;13.20;46.60;;;18.01;100.00;-21170.25;4975012;28;20973;-69
2021/04/03 10:21:08;;;;;;;1.50;0.90;;;13.30;47.00;;;17.25;100.00;-21149.97;4974592;28;20463;-70
2021/04/03 10:23:35;;;;;;;0.90;0.80;;;12.70;45.80;;;17.60;100.00;-21159.41;4972603;28;20425;-70
2021/04/03 10:26:03;;;;;;;0.80;0.63;;;12.70;48.90;;;17.39;100.00;-21153.78;4972289;28;20468;-69
2021/04/03 10:28:30;;;;;;;0.70;0.60;;;12.50;46.20;;;17.02;100.00;-21143.66;4974121;28;20534;-69
2021/04/03 10:30:57;;;;;;;2.03;1.83;;;13.10;49.00;;;17.69;100.00;-21161.75;4973428;28;20438;-70
2021/04/03 10:33:24;;;;;;;0.80;0.80;;;12.50;46.90;;;15.97;100.00;-21115.38;4984650;28;20432;-69
2021/04/03 10:35:51;;;;;;;0.93;0.83;;;12.30;49.60;;;17.09;100.00;-21145.72;4974552;28;20834;-69